createdAt,value
2022-12-31T00:01:17.969Z,2.20
2022-12-31T00:03:47.294Z,2.50
2022-12-31T00:06:18.433Z,2.40
2022-12-31T00:08:47.696Z,2.47
2022-12-31T00:11:16.884Z,2.17
2022-12-31T00:13:46.666Z,2.20
2022-12-31T00:16:18.966Z,2.42
2022-12-31T00:18:49.420Z,2.40
2022-12-31T00:21:19.300Z,2.00
2022-12-31T00:23:48.934Z,2.17
2022-12-31T00:26:19.689Z,2.50
2022-12-31T00:28:48.831Z,2.10
2022-12-31T00:31:20.897Z,2.20
2022-12-31T00:33:49.494Z,2.40
2022-12-31T00:36:19.713Z,2.35
2022-12-31T00:38:51.220Z,2.30
2022-12-31T00:41:21.070Z,1.90
2022-12-31T00:43:50.349Z,2.60
2022-12-31T00:46:21.081Z,2.33
2022-12-31T00:48:49.927Z,2.40
2022-12-31T00:51:21.136Z,2.30
2022-12-31T00:53:50.157Z,2.25
2022-12-31T00:56:21.032Z,2.25
2022-12-31T00:58:50.319Z,2.00
2022-12-31T01:01:22.514Z,2.38
2022-12-31T01:03:55.063Z,2.05
2022-12-31T01:06:23.682Z,1.92
2022-12-31T01:08:53.735Z,2.05
2022-12-31T01:11:29.221Z,1.90
2022-12-31T01:14:00.189Z,1.83
2022-12-31T01:16:33.089Z,2.08
2022-12-31T01:19:04.375Z,2.00
2022-12-31T01:21:33.645Z,2.42
2022-12-31T01:24:02.375Z,2.10
2022-12-31T01:26:32.799Z,2.30
2022-12-31T01:29:01.249Z,2.42
2022-12-31T01:31:31.471Z,1.83
2022-12-31T01:33:59.956Z,2.60
2022-12-31T01:36:30.196Z,2.00
2022-12-31T01:39:01.733Z,2.15
2022-12-31T01:41:31.981Z,2.00
2022-12-31T01:44:01.862Z,2.10
2022-12-31T01:46:41.356Z,1.95
2022-12-31T01:49:14.736Z,2.10
2022-12-31T01:51:46.285Z,2.08
2022-12-31T01:54:19.306Z,1.90
2022-12-31T01:56:50.307Z,2.13
2022-12-31T01:59:21.867Z,1.95
2022-12-31T02:01:53.663Z,1.90
2022-12-31T02:04:24.903Z,2.05
2022-12-31T02:06:58.836Z,1.95
2022-12-31T02:09:27.315Z,2.05
2022-12-31T02:11:55.730Z,1.95
2022-12-31T02:14:27.957Z,2.20
2022-12-31T02:17:02.532Z,2.50
2022-12-31T02:20:14.601Z,1.90
2022-12-31T02:23:08.917Z,2.10
2022-12-31T02:26:04.477Z,1.65
2022-12-31T02:28:47.592Z,2.30
2022-12-31T02:31:19.677Z,2.25
2022-12-31T02:33:55.807Z,1.85
2022-12-31T02:36:28.839Z,1.70
2022-12-31T02:38:59.466Z,2.08
2022-12-31T02:41:45.629Z,2.13
2022-12-31T02:44:24.461Z,1.98
2022-12-31T02:47:02.596Z,1.88
2022-12-31T02:49:41.530Z,1.77
2022-12-31T02:52:19.085Z,1.70
2022-12-31T02:54:59.575Z,2.17
2022-12-31T02:57:35.253Z,1.90
2022-12-31T03:00:24.825Z,2.00
2022-12-31T03:02:56.625Z,1.75
2022-12-31T03:05:28.186Z,2.13
2022-12-31T03:07:56.752Z,2.10
2022-12-31T03:10:25.313Z,1.83
2022-12-31T03:12:52.944Z,2.00
2022-12-31T03:15:24.103Z,2.00
2022-12-31T03:17:56.837Z,2.13
2022-12-31T03:20:46.232Z,1.70
2022-12-31T03:23:17.352Z,1.60
2022-12-31T03:25:44.864Z,1.98
2022-12-31T03:28:15.162Z,1.70
2022-12-31T03:30:45.723Z,1.92
2022-12-31T03:33:16.011Z,1.70
2022-12-31T03:35:46.944Z,1.70
2022-12-31T03:38:16.262Z,1.65
2022-12-31T03:40:47.196Z,1.73
2022-12-31T03:43:15.882Z,1.70
2022-12-31T03:45:44.592Z,1.80
2022-12-31T03:48:15.210Z,1.80
2022-12-31T03:50:43.625Z,1.67
2022-12-31T03:53:12.346Z,1.60
2022-12-31T03:55:40.862Z,1.90
2022-12-31T03:58:09.423Z,1.73
2022-12-31T04:00:37.913Z,1.70
2022-12-31T04:03:07.859Z,1.77
2022-12-31T04:05:37.740Z,1.70
2022-12-31T04:08:06.321Z,1.60
2022-12-31T04:10:34.827Z,1.90
2022-12-31T04:13:04.576Z,1.73
2022-12-31T04:15:33.278Z,1.50
2022-12-31T04:18:01.732Z,2.00
2022-12-31T04:20:30.250Z,1.70
2022-12-31T04:23:00.145Z,1.67
2022-12-31T04:25:40.650Z,1.45
2022-12-31T04:28:09.106Z,1.67
2022-12-31T04:30:37.571Z,1.75
2022-12-31T04:33:06.054Z,1.70
2022-12-31T04:35:34.483Z,1.83
2022-12-31T04:38:04.524Z,1.90
2022-12-31T04:40:33.082Z,1.70
2022-12-31T04:43:01.614Z,1.65
2022-12-31T04:45:30.117Z,1.92
2022-12-31T04:47:58.563Z,1.70
2022-12-31T04:50:27.084Z,1.80
2022-12-31T04:52:55.559Z,1.73
2022-12-31T04:55:25.304Z,1.90
2022-12-31T04:57:53.774Z,1.60
2022-12-31T05:00:22.442Z,1.50
2022-12-31T05:02:51.208Z,1.42
2022-12-31T05:05:19.820Z,1.80
2022-12-31T05:07:48.254Z,1.90
2022-12-31T05:10:16.823Z,1.85
2022-12-31T05:12:46.693Z,1.40
2022-12-31T05:15:15.254Z,1.80
2022-12-31T05:17:43.849Z,1.48
2022-12-31T05:20:13.289Z,1.45
2022-12-31T05:22:41.762Z,1.63
2022-12-31T05:25:10.327Z,1.48
2022-12-31T05:27:39.821Z,1.60
2022-12-31T05:30:11.068Z,1.30
2022-12-31T05:32:39.572Z,1.50
2022-12-31T05:35:08.909Z,1.40
2022-12-31T05:37:37.937Z,1.70
2022-12-31T05:40:07.664Z,1.60
2022-12-31T05:42:36.325Z,1.50
2022-12-31T05:45:05.245Z,1.40
2022-12-31T05:47:35.170Z,1.50
2022-12-31T05:50:03.749Z,1.52
2022-12-31T05:52:32.235Z,1.48
2022-12-31T05:55:00.665Z,1.63
2022-12-31T05:57:29.058Z,1.75
2022-12-31T05:59:57.438Z,1.55
2022-12-31T06:02:26.132Z,1.48
2022-12-31T06:04:56.023Z,1.67
2022-12-31T06:07:24.572Z,1.60
2022-12-31T06:09:53.107Z,1.30
2022-12-31T06:12:21.676Z,1.30
2022-12-31T06:14:50.181Z,1.42
2022-12-31T06:17:19.103Z,1.50
2022-12-31T06:19:49.299Z,1.40
2022-12-31T06:22:19.295Z,1.55
2022-12-31T06:24:48.526Z,1.45
2022-12-31T06:27:17.084Z,1.40
2022-12-31T06:29:45.910Z,1.30
2022-12-31T06:32:14.498Z,1.80
2022-12-31T06:34:42.892Z,1.30
2022-12-31T06:37:11.743Z,1.30
2022-12-31T06:39:41.604Z,1.42
2022-12-31T06:42:10.004Z,1.30
2022-12-31T06:44:39.717Z,1.50
2022-12-31T06:47:08.143Z,1.55
2022-12-31T06:49:36.605Z,1.20
2022-12-31T06:52:05.358Z,1.15
2022-12-31T06:54:34.150Z,1.30
2022-12-31T06:57:05.119Z,1.10
2022-12-31T06:59:34.145Z,1.33
2022-12-31T07:02:31.983Z,1.05
2022-12-31T07:05:13.935Z,1.42
2022-12-31T07:07:53.383Z,1.30
2022-12-31T07:10:33.747Z,1.08
2022-12-31T07:13:24.583Z,1.30
2022-12-31T07:16:08.861Z,1.20
2022-12-31T07:18:44.041Z,1.50
2022-12-31T07:21:14.976Z,1.35
2022-12-31T07:23:44.343Z,1.45
2022-12-31T07:26:23.499Z,1.23
2022-12-31T07:29:02.225Z,1.17
2022-12-31T07:31:54.975Z,1.27
2022-12-31T07:34:30.483Z,1.30
2022-12-31T07:37:05.978Z,1.40
2022-12-31T07:39:43.109Z,1.30
2022-12-31T07:42:17.430Z,1.23
2022-12-31T07:45:02.339Z,1.23
2022-12-31T07:47:31.268Z,1.20
2022-12-31T07:50:00.279Z,1.23
2022-12-31T07:52:29.262Z,1.30
2022-12-31T07:54:57.737Z,1.20
2022-12-31T07:57:32.805Z,1.27
2022-12-31T08:00:09.795Z,1.45
2022-12-31T08:03:03.011Z,1.33
2022-12-31T08:05:36.465Z,1.10
2022-12-31T08:08:18.644Z,1.05
2022-12-31T08:11:00.741Z,1.25
2022-12-31T08:13:29.386Z,1.00
2022-12-31T08:16:00.235Z,0.98
2022-12-31T08:18:29.112Z,1.10
2022-12-31T08:21:07.379Z,1.27
2022-12-31T08:23:40.829Z,1.00
2022-12-31T08:26:22.106Z,1.40
2022-12-31T08:29:17.667Z,1.20
2022-12-31T08:31:55.590Z,1.33
2022-12-31T08:34:32.828Z,1.33
2022-12-31T08:37:06.393Z,1.23
2022-12-31T08:39:49.631Z,1.20
2022-12-31T08:42:26.850Z,1.30
2022-12-31T08:45:04.121Z,1.27
2022-12-31T08:47:43.049Z,1.23
2022-12-31T08:50:15.712Z,1.13
2022-12-31T08:52:44.976Z,1.10
2022-12-31T08:55:16.326Z,1.10
2022-12-31T08:57:53.790Z,1.30
2022-12-31T09:00:23.180Z,1.17
2022-12-31T09:03:31.596Z,1.20
2022-12-31T09:06:07.605Z,1.30
2022-12-31T09:08:44.931Z,1.10
2022-12-31T09:11:22.801Z,1.40
2022-12-31T09:14:08.807Z,1.38
2022-12-31T09:16:47.490Z,1.60
2022-12-31T09:19:17.402Z,1.42
2022-12-31T09:21:46.510Z,1.38
2022-12-31T09:24:16.572Z,1.30
2022-12-31T09:26:52.992Z,1.50
2022-12-31T09:29:35.981Z,1.80
2022-12-31T09:32:13.945Z,1.60
2022-12-31T09:34:50.797Z,1.60
2022-12-31T09:37:26.787Z,1.75
2022-12-31T09:40:00.546Z,1.85
2022-12-31T09:43:02.065Z,2.00
2022-12-31T09:46:05.078Z,2.03
2022-12-31T09:49:05.810Z,1.90
2022-12-31T09:51:46.302Z,2.10
2022-12-31T09:54:41.121Z,2.25
2022-12-31T09:57:28.574Z,1.98
2022-12-31T10:00:02.526Z,2.22
2022-12-31T10:02:55.042Z,2.42
2022-12-31T10:05:43.522Z,1.80
2022-12-31T10:08:29.681Z,2.15
2022-12-31T10:11:04.048Z,2.38
2022-12-31T10:13:49.931Z,2.20
2022-12-31T10:16:33.503Z,2.25
2022-12-31T10:19:30.316Z,2.40
2022-12-31T10:22:11.971Z,2.28
2022-12-31T10:25:08.848Z,2.42
2022-12-31T10:27:49.810Z,2.17
2022-12-31T10:30:20.963Z,2.20
2022-12-31T10:33:04.418Z,2.70
2022-12-31T10:35:41.518Z,2.60
2022-12-31T10:38:25.696Z,2.10
2022-12-31T10:41:38.952Z,2.55
2022-12-31T10:44:46.506Z,2.30
2022-12-31T10:47:48.976Z,2.03
2022-12-31T10:50:44.878Z,2.78
2022-12-31T10:53:42.884Z,2.65
2022-12-31T10:56:46.956Z,2.25
2022-12-31T10:59:55.125Z,2.35
2022-12-31T11:02:56.957Z,2.22
2022-12-31T11:06:10.204Z,2.30
2022-12-31T11:08:55.141Z,2.20
2022-12-31T11:11:32.596Z,2.40
2022-12-31T11:14:33.144Z,2.47
2022-12-31T11:17:14.053Z,2.03
2022-12-31T11:19:55.972Z,2.63
2022-12-31T11:22:38.967Z,2.50
2022-12-31T11:25:21.653Z,2.63
2022-12-31T11:28:03.546Z,2.42
2022-12-31T11:30:45.704Z,2.50
2022-12-31T11:33:32.418Z,2.50
2022-12-31T11:36:15.006Z,2.30
2022-12-31T11:38:48.531Z,2.10
2022-12-31T11:41:24.281Z,2.15
2022-12-31T11:44:02.034Z,1.98
2022-12-31T11:47:00.840Z,2.08
2022-12-31T11:49:42.145Z,1.83
2022-12-31T11:52:34.334Z,2.10
2022-12-31T11:55:25.541Z,2.25
2022-12-31T11:57:56.138Z,2.20
2022-12-31T12:00:26.905Z,2.22
2022-12-31T12:03:00.641Z,2.10
2022-12-31T12:05:29.403Z,1.98
2022-12-31T12:07:58.534Z,2.40
2022-12-31T12:10:36.142Z,2.17
2022-12-31T12:13:14.366Z,2.38
2022-12-31T12:15:46.653Z,2.08
2022-12-31T12:18:27.266Z,2.33
2022-12-31T12:21:06.457Z,2.10
2022-12-31T12:23:34.917Z,2.38
2022-12-31T12:26:03.497Z,2.03
2022-12-31T12:28:44.503Z,2.20
2022-12-31T12:31:21.160Z,1.95
2022-12-31T12:33:52.876Z,1.83
2022-12-31T12:36:22.943Z,2.03
2022-12-31T12:39:02.423Z,2.00
2022-12-31T12:41:30.984Z,2.15
2022-12-31T12:44:07.920Z,2.35
2022-12-31T12:46:47.980Z,2.00
2022-12-31T12:49:24.662Z,2.10
2022-12-31T12:52:24.703Z,1.90
2022-12-31T12:55:07.406Z,2.20
2022-12-31T12:57:45.260Z,1.92
2022-12-31T13:00:20.067Z,2.30
2022-12-31T13:03:08.668Z,1.70
2022-12-31T13:05:52.954Z,1.98
2022-12-31T13:08:34.537Z,2.20
2022-12-31T13:11:15.816Z,2.10
2022-12-31T13:13:53.337Z,2.00
2022-12-31T13:16:29.076Z,2.00
2022-12-31T13:19:05.616Z,1.92
2022-12-31T13:21:46.577Z,2.30
2022-12-31T13:24:26.452Z,2.10
2022-12-31T13:27:01.818Z,2.10
2022-12-31T13:29:33.666Z,2.20
2022-12-31T13:32:05.041Z,2.78
2022-12-31T13:34:37.531Z,2.20
2022-12-31T13:37:19.418Z,2.05
2022-12-31T13:39:50.971Z,2.20
2022-12-31T13:42:24.772Z,2.20
2022-12-31T13:44:59.330Z,2.30
2022-12-31T13:47:33.654Z,2.40
2022-12-31T13:50:09.571Z,2.30
2022-12-31T13:52:49.821Z,2.30
2022-12-31T13:55:22.491Z,2.17
2022-12-31T13:57:54.502Z,2.38
2022-12-31T14:00:25.317Z,2.75
2022-12-31T14:03:03.245Z,2.40
2022-12-31T14:05:36.229Z,2.35
2022-12-31T14:08:07.311Z,2.28
2022-12-31T14:10:47.118Z,2.40
2022-12-31T14:13:35.166Z,2.50
2022-12-31T14:16:12.746Z,2.88
2022-12-31T14:18:46.881Z,2.58
2022-12-31T14:21:22.797Z,2.60
2022-12-31T14:24:00.308Z,2.53
2022-12-31T14:26:32.196Z,2.30
2022-12-31T14:29:15.443Z,2.42
2022-12-31T14:32:13.636Z,2.45
2022-12-31T14:34:51.774Z,2.53
2022-12-31T14:37:33.914Z,2.60
2022-12-31T14:40:17.709Z,2.65
2022-12-31T14:42:57.694Z,2.60
2022-12-31T14:45:36.431Z,2.90
2022-12-31T14:48:21.885Z,2.40
2022-12-31T14:50:51.257Z,2.40
2022-12-31T14:53:24.049Z,2.60
2022-12-31T14:56:01.818Z,2.83
2022-12-31T14:58:36.486Z,2.65
2022-12-31T15:01:09.000Z,2.38
2022-12-31T15:03:45.430Z,2.90
2022-12-31T15:06:36.762Z,2.63
2022-12-31T15:09:15.357Z,2.63
2022-12-31T15:12:05.085Z,2.90
2022-12-31T15:14:51.851Z,2.85
2022-12-31T15:17:33.197Z,2.83
2022-12-31T15:20:42.378Z,2.60
2022-12-31T15:23:20.880Z,2.50
2022-12-31T15:25:52.448Z,3.13
2022-12-31T15:28:37.426Z,2.72
2022-12-31T15:31:19.114Z,2.83
2022-12-31T15:33:58.262Z,2.30
2022-12-31T15:36:28.916Z,2.60
2022-12-31T15:39:26.650Z,2.63
2022-12-31T15:42:36.105Z,2.78
2022-12-31T15:44:50.711Z,2.63
2022-12-31T15:47:32.437Z,3.03
2022-12-31T15:50:04.523Z,2.65
2022-12-31T15:52:40.234Z,2.60
2022-12-31T15:55:16.629Z,2.83
2022-12-31T15:57:45.270Z,2.58
2022-12-31T16:00:20.054Z,2.70
2022-12-31T16:02:49.353Z,2.10
2022-12-31T16:05:20.774Z,2.30
2022-12-31T16:07:49.600Z,1.95
2022-12-31T16:10:24.726Z,2.22
2022-12-31T16:12:54.662Z,2.10
2022-12-31T16:15:28.110Z,2.30
2022-12-31T16:18:02.808Z,2.00
2022-12-31T16:20:33.787Z,2.60
2022-12-31T16:23:04.379Z,2.40
2022-12-31T16:25:34.135Z,2.58
2022-12-31T16:28:04.682Z,2.58
2022-12-31T16:30:36.841Z,2.92
2022-12-31T16:33:07.948Z,2.00
2022-12-31T16:35:38.018Z,2.42
2022-12-31T16:38:15.789Z,2.13
2022-12-31T16:41:04.544Z,2.22
2022-12-31T16:43:39.418Z,2.50
2022-12-31T16:46:13.561Z,2.50
2022-12-31T16:51:20.779Z,2.38
2022-12-31T16:53:50.427Z,2.30
2022-12-31T16:56:26.007Z,2.25
2022-12-31T16:59:00.767Z,2.10
2022-12-31T17:01:33.999Z,2.13
2022-12-31T17:04:07.295Z,2.17
2022-12-31T17:06:35.762Z,2.42
2022-12-31T17:09:15.320Z,2.20
2022-12-31T17:11:45.444Z,2.30
2022-12-31T17:14:16.366Z,2.30
2022-12-31T17:17:03.678Z,2.25
2022-12-31T17:19:41.315Z,2.30
2022-12-31T17:22:14.319Z,2.65
2022-12-31T17:24:43.236Z,2.20
2022-12-31T17:27:11.827Z,2.10
2022-12-31T17:29:40.299Z,2.00
2022-12-31T17:32:29.472Z,2.40
2022-12-31T17:34:57.995Z,2.20
2022-12-31T17:37:28.256Z,2.30
2022-12-31T17:40:24.665Z,2.25
2022-12-31T17:42:49.885Z,2.00
2022-12-31T17:45:22.485Z,2.20
2022-12-31T17:47:55.540Z,2.13
2022-12-31T17:50:26.453Z,2.88
2022-12-31T17:52:57.290Z,2.08
2022-12-31T17:55:25.948Z,2.10
2022-12-31T17:57:57.280Z,2.13
2022-12-31T18:00:27.391Z,1.90
2022-12-31T18:02:57.239Z,1.98
2022-12-31T18:05:26.105Z,1.92
2022-12-31T18:07:54.936Z,2.10
2022-12-31T18:10:25.239Z,2.33
2022-12-31T18:12:54.204Z,2.33
2022-12-31T18:15:24.529Z,2.33
2022-12-31T18:17:52.965Z,2.50
2022-12-31T18:20:22.910Z,2.50
2022-12-31T18:22:51.871Z,2.22
2022-12-31T18:25:22.310Z,2.22
2022-12-31T18:27:52.069Z,2.20
2022-12-31T18:30:20.610Z,1.92
2022-12-31T18:32:49.541Z,2.65
2022-12-31T18:35:57.768Z,2.30
2022-12-31T18:38:13.966Z,2.40
2022-12-31T18:40:46.590Z,2.40
2022-12-31T18:43:19.527Z,2.05
2022-12-31T18:45:49.046Z,2.33
2022-12-31T18:48:18.106Z,2.22
2022-12-31T18:50:47.800Z,2.75
2022-12-31T18:53:20.468Z,2.60
2022-12-31T18:55:52.527Z,2.72
2022-12-31T18:58:21.116Z,2.40
2022-12-31T19:00:51.113Z,2.58
2022-12-31T19:03:22.708Z,2.42
2022-12-31T19:05:52.538Z,2.72
2022-12-31T19:08:24.175Z,2.72
2022-12-31T19:10:53.702Z,3.15
2022-12-31T19:13:23.198Z,3.13
2022-12-31T19:15:53.800Z,2.88
2022-12-31T19:18:22.587Z,3.22
2022-12-31T19:20:52.489Z,3.13
2022-12-31T19:23:22.666Z,3.28
2022-12-31T19:25:51.503Z,3.60
2022-12-31T19:28:22.404Z,3.50
2022-12-31T19:30:50.864Z,3.60
2022-12-31T19:33:20.177Z,3.53
2022-12-31T19:35:48.709Z,3.80
2022-12-31T19:38:19.684Z,3.90
2022-12-31T19:40:50.546Z,3.63
2022-12-31T19:43:21.593Z,3.50
2022-12-31T19:45:51.231Z,3.83
2022-12-31T19:48:22.877Z,3.83
2022-12-31T19:50:55.081Z,3.67
2022-12-31T19:53:26.644Z,3.92
2022-12-31T19:55:56.631Z,4.38
2022-12-31T19:58:26.604Z,3.83
2022-12-31T20:01:01.918Z,4.00
2022-12-31T20:03:32.459Z,3.50
2022-12-31T20:06:07.452Z,4.05
2022-12-31T20:08:36.383Z,4.40
2022-12-31T20:11:14.087Z,4.07
2022-12-31T20:13:43.421Z,4.15
2022-12-31T20:16:15.539Z,4.05
2022-12-31T20:18:45.525Z,4.53
2022-12-31T20:21:17.607Z,4.28
2022-12-31T20:23:46.757Z,4.30
2022-12-31T20:26:16.706Z,4.47
2022-12-31T20:28:45.357Z,4.28
2022-12-31T20:31:15.655Z,4.38
2022-12-31T20:33:44.727Z,4.30
2022-12-31T20:36:15.800Z,3.97
2022-12-31T20:38:44.744Z,4.72
2022-12-31T20:41:14.714Z,4.65
2022-12-31T20:43:45.448Z,4.30
2022-12-31T20:46:17.972Z,4.47
2022-12-31T20:48:47.803Z,4.70
2022-12-31T20:51:17.815Z,4.20
2022-12-31T20:53:48.312Z,4.50
2022-12-31T20:56:17.786Z,4.70
2022-12-31T20:58:47.621Z,4.40
2022-12-31T21:01:17.608Z,4.70
2022-12-31T21:04:05.351Z,4.70
2022-12-31T21:06:35.787Z,4.60
2022-12-31T21:09:06.528Z,5.10
2022-12-31T21:11:52.871Z,4.47
2022-12-31T21:16:51.508Z,4.85
2022-12-31T21:19:20.034Z,4.60
2022-12-31T21:21:49.757Z,4.68
2022-12-31T21:24:23.613Z,4.80
2022-12-31T21:26:55.404Z,4.97
2022-12-31T21:29:26.905Z,4.60
2022-12-31T21:31:57.361Z,5.05
2022-12-31T21:34:25.838Z,4.90
2022-12-31T21:36:54.347Z,4.57
2022-12-31T21:39:22.856Z,4.80
2022-12-31T21:41:53.969Z,4.93
2022-12-31T21:44:25.418Z,4.65
2022-12-31T21:47:39.738Z,4.65
2022-12-31T21:50:09.760Z,4.95
2022-12-31T21:52:38.243Z,5.50
2022-12-31T21:55:25.190Z,4.88
2022-12-31T22:01:01.592Z,4.68
2022-12-31T22:03:31.691Z,5.00
2022-12-31T22:06:02.824Z,5.57
2022-12-31T22:08:32.886Z,4.88
2022-12-31T22:11:01.313Z,4.88
2022-12-31T22:13:29.797Z,5.35
2022-12-31T22:16:05.161Z,4.82
2022-12-31T22:18:38.508Z,4.40
2022-12-31T22:21:15.563Z,5.47
2022-12-31T22:23:47.347Z,5.45
2022-12-31T22:26:17.928Z,4.85
2022-12-31T22:28:47.147Z,5.05
2022-12-31T22:31:18.932Z,5.13
2022-12-31T22:33:48.165Z,4.60
2022-12-31T22:36:18.875Z,5.35
2022-12-31T22:38:48.245Z,5.22
2022-12-31T22:41:18.733Z,4.70
2022-12-31T22:43:48.674Z,5.10
2022-12-31T22:46:20.166Z,5.20
2022-12-31T22:48:48.803Z,5.35
2022-12-31T22:51:17.701Z,4.95
2022-12-31T22:53:46.862Z,4.90
2022-12-31T22:56:17.811Z,5.38
2022-12-31T22:58:47.216Z,4.82
2022-12-31T23:01:20.316Z,5.38
2022-12-31T23:03:50.286Z,4.78
2022-12-31T23:06:19.477Z,5.32
2022-12-31T23:09:12.516Z,5.05
2022-12-31T23:11:40.682Z,5.25
2022-12-31T23:14:26.683Z,5.47
2022-12-31T23:17:31.390Z,5.68
2022-12-31T23:20:18.225Z,6.88
2022-12-31T23:25:33.936Z,7.70
2022-12-31T23:28:02.808Z,7.00
2022-12-31T23:30:31.334Z,8.13
2022-12-31T23:33:01.163Z,8.77
2022-12-31T23:35:29.632Z,8.82
2022-12-31T23:37:58.093Z,8.93
2022-12-31T23:40:34.200Z,9.68
2022-12-31T23:43:04.046Z,10.25
2022-12-31T23:45:34.006Z,9.73
2022-12-31T23:48:04.520Z,10.02
2022-12-31T23:50:32.952Z,11.30
2022-12-31T23:53:01.453Z,10.80
2022-12-31T23:55:29.962Z,11.82
2022-12-31T23:57:58.393Z,11.18
